Time;durP1;ratioP1;P1;durP2;ratioP2;P2;SDS_P1;SDS_P2;PMS_P1;PMS_P2;Temp;Humidity;BMP_temperature;BMP_pressure;BME280_temperature;BME280_humidity;BME280_pressure;Samples;Min_cycle;Max_cycle;Signal;HPM_P1;HPM_P2
2022/11/11 00:01:13;;;;;;;30.93;11.03;;;10.60;99.90;;;;;;5020581;28;20293;-73
2022/11/11 00:03:41;;;;;;;22.07;10.73;;;10.50;99.90;;;;;;5018213;28;20265;-73
2022/11/11 00:06:13;;;;;;;20.83;10.57;;;10.50;99.90;;;;;;5022367;28;20229;-73
2022/11/11 00:08:41;;;;;;;18.43;10.50;;;10.50;99.90;;;;;;5021116;28;20238;-74
2022/11/11 00:11:11;;;;;;;22.43;11.43;;;10.50;99.90;;;;;;5026236;28;20313;-73
2022/11/11 00:13:41;;;;;;;20.37;11.37;;;10.50;99.90;;;;;;5021345;28;20507;-73
2022/11/11 00:16:11;;;;;;;25.70;11.97;;;10.50;99.90;;;;;;5023463;28;20646;-73
2022/11/11 00:26:40;;;;;;;20.57;12.20;;;10.60;99.90;;;;;;5022280;28;20344;-72
2022/11/11 00:29:07;;;;;;;22.70;12.90;;;10.60;99.90;;;;;;5020267;28;20237;-72
2022/11/11 00:31:34;;;;;;;21.60;11.90;;;10.60;99.90;;;;;;5023949;28;20208;-73
2022/11/11 00:34:01;;;;;;;22.00;12.43;;;10.60;99.90;;;;;;5019683;28;20216;-73
2022/11/11 00:36:28;;;;;;;21.23;12.53;;;10.60;99.90;;;;;;5020258;28;20225;-73
2022/11/11 00:38:57;;;;;;;26.13;14.27;;;10.70;99.90;;;;;;5022756;28;20221;-72
2022/11/11 00:41:25;;;;;;;29.27;13.83;;;10.70;99.90;;;;;;5026218;28;20225;-72
2022/11/11 00:43:52;;;;;;;28.63;14.30;;;10.80;99.90;;;;;;5020110;28;20218;-72
2022/11/11 00:51:51;;;;;;;29.67;17.00;;;10.80;99.90;;;;;;5022581;28;20225;-74
2022/11/11 00:54:18;;;;;;;31.07;17.03;;;10.70;99.90;;;;;;5006479;28;20241;-73
2022/11/11 00:56:45;;;;;;;33.70;17.83;;;10.80;99.90;;;;;;5020675;28;20225;-73
2022/11/11 00:59:13;;;;;;;34.13;17.33;;;10.80;99.90;;;;;;5018863;28;20214;-73
2022/11/11 01:01:40;;;;;;;32.73;18.37;;;10.80;99.90;;;;;;5018952;28;20285;-73
2022/11/11 01:04:07;;;;;;;35.67;19.23;;;10.90;99.90;;;;;;5017872;28;20240;-74
2022/11/11 01:06:33;;;;;;;28.00;17.70;;;10.80;99.90;;;;;;5022354;28;20264;-73
2022/11/11 01:09:05;;;;;;;36.77;19.30;;;10.90;99.90;;;;;;5017994;28;20229;-73
2022/11/11 01:11:32;;;;;;;42.20;19.20;;;10.90;99.90;;;;;;5024142;28;20265;-72
2022/11/11 01:13:59;;;;;;;35.90;19.60;;;10.90;99.90;;;;;;5022453;28;20248;-72
2022/11/11 01:16:26;;;;;;;34.47;19.53;;;11.00;99.90;;;;;;5027630;28;20304;-74
2022/11/11 01:18:53;;;;;;;35.20;20.30;;;11.00;99.90;;;;;;5012537;28;20221;-73
2022/11/11 01:21:24;;;;;;;35.80;20.70;;;11.00;99.90;;;;;;5021711;28;20222;-74
2022/11/11 01:23:52;;;;;;;33.57;20.77;;;11.00;99.90;;;;;;5022707;28;20331;-73
2022/11/11 01:26:23;;;;;;;41.13;19.60;;;11.00;99.90;;;;;;5024936;28;20233;-74
2022/11/11 01:28:57;;;;;;;38.57;21.67;;;11.00;99.90;;;;;;5022316;28;20226;-73
2022/11/11 01:31:25;;;;;;;33.87;19.93;;;11.00;99.90;;;;;;5029397;28;20216;-73
2022/11/11 01:33:52;;;;;;;37.63;20.93;;;11.10;99.90;;;;;;5026378;28;20212;-72
2022/11/11 01:36:22;;;;;;;39.27;21.23;;;11.10;99.90;;;;;;5021695;28;20625;-73
2022/11/11 01:38:51;;;;;;;42.07;21.03;;;11.10;99.90;;;;;;5022697;28;20215;-74
2022/11/11 01:41:36;;;;;;;37.37;20.17;;;11.10;99.90;;;;;;5022733;28;20709;-72
2022/11/11 01:44:09;;;;;;;42.13;21.80;;;11.20;99.90;;;;;;5024237;28;20205;-74
2022/11/11 01:46:44;;;;;;;38.57;21.40;;;11.20;99.90;;;;;;5023359;28;20207;-72
2022/11/11 01:49:40;;;;;;;41.50;22.27;;;11.20;99.90;;;;;;5021037;28;20229;-74
2022/11/11 01:52:13;;;;;;;33.27;20.20;;;11.20;99.90;;;;;;5024116;28;20221;-73
2022/11/11 01:54:47;;;;;;;39.47;21.33;;;11.20;99.90;;;;;;5025906;28;20744;-72
2022/11/11 01:57:27;;;;;;;42.00;21.57;;;11.20;99.90;;;;;;5024236;28;20714;-73
2022/11/11 02:00:01;;;;;;;34.97;22.30;;;11.20;99.90;;;;;;5027994;28;20240;-71
2022/11/11 02:02:49;;;;;;;37.30;21.40;;;11.20;99.90;;;;;;5024650;28;20220;-73
2022/11/11 02:08:13;;;;;;;38.40;21.20;;;11.20;99.90;;;;;;5022609;28;20234;-73
2022/11/11 02:10:44;;;;;;;37.90;22.80;;;11.30;99.90;;;;;;5027606;28;20230;-72
2022/11/11 02:16:00;;;;;;;44.53;23.87;;;11.30;99.90;;;;;;5018194;28;20257;-73
2022/11/11 02:18:27;;;;;;;43.70;22.53;;;11.20;99.90;;;;;;5027164;28;20605;-72
2022/11/11 02:20:54;;;;;;;43.43;22.70;;;11.30;99.90;;;;;;5021262;28;20702;-75
2022/11/11 02:23:27;;;;;;;38.80;22.37;;;11.30;99.90;;;;;;5025036;28;20234;-73
2022/11/11 02:25:56;;;;;;;41.20;22.60;;;11.30;99.90;;;;;;5022465;28;20208;-75
2022/11/11 02:28:27;;;;;;;34.67;22.37;;;11.30;99.90;;;;;;5027185;28;20295;-73
2022/11/11 02:30:54;;;;;;;39.80;21.77;;;11.30;99.90;;;;;;5032257;28;20226;-75
2022/11/11 02:33:21;;;;;;;36.13;21.87;;;11.30;99.90;;;;;;5003087;28;20277;-72
2022/11/11 02:35:57;;;;;;;41.47;23.17;;;11.30;99.90;;;;;;5008906;28;20229;-72
2022/11/11 02:38:25;;;;;;;37.57;22.07;;;11.30;99.90;;;;;;5009747;28;20263;-74
2022/11/11 02:43:38;;;;;;;44.67;22.43;;;11.30;99.90;;;;;;5017500;28;20213;-73
2022/11/11 02:46:06;;;;;;;37.93;22.10;;;11.30;99.90;;;;;;5024476;28;20202;-73
2022/11/11 02:48:34;;;;;;;38.97;20.87;;;11.30;99.90;;;;;;5021418;28;20210;-72
2022/11/11 02:51:00;;;;;;;37.37;21.13;;;11.30;99.90;;;;;;5024709;28;20229;-74
2022/11/11 02:53:27;;;;;;;34.37;20.53;;;11.40;99.90;;;;;;5027438;28;20217;-76
2022/11/11 02:55:55;;;;;;;38.90;21.13;;;11.30;99.90;;;;;;5019967;28;20667;-73
2022/11/11 02:58:23;;;;;;;40.00;20.90;;;11.20;99.90;;;;;;5021678;28;20283;-73
2022/11/11 03:00:50;;;;;;;35.27;20.90;;;11.20;99.90;;;;;;5019410;28;20248;-73
2022/11/11 03:03:17;;;;;;;34.57;20.83;;;11.20;99.90;;;;;;5024865;28;20736;-72
2022/11/11 03:05:44;;;;;;;38.07;20.53;;;11.30;99.90;;;;;;5017240;28;20268;-73
2022/11/11 03:08:11;;;;;;;38.77;22.10;;;11.20;99.90;;;;;;5021706;28;20198;-72
2022/11/11 03:10:38;;;;;;;35.17;19.80;;;11.20;99.90;;;;;;5023784;28;20225;-73
2022/11/11 03:13:05;;;;;;;39.53;22.00;;;11.20;99.90;;;;;;5024366;28;20210;-71
2022/11/11 03:15:32;;;;;;;36.17;20.47;;;11.20;99.90;;;;;;5022345;28;20242;-73
2022/11/11 03:17:59;;;;;;;40.30;20.90;;;11.20;99.90;;;;;;5023760;28;20202;-73
2022/11/11 03:23:14;;;;;;;34.70;20.17;;;11.20;99.90;;;;;;5027253;28;20209;-73
2022/11/11 03:25:45;;;;;;;41.00;21.10;;;11.20;99.90;;;;;;5020607;28;20422;-73
2022/11/11 03:28:20;;;;;;;34.97;20.47;;;11.20;99.90;;;;;;5024179;28;20486;-72
2022/11/11 03:30:48;;;;;;;37.90;21.90;;;11.20;99.90;;;;;;5023386;28;20748;-71
2022/11/11 03:33:16;;;;;;;36.13;21.30;;;11.20;99.90;;;;;;5017933;28;20305;-73
2022/11/11 03:35:45;;;;;;;36.93;19.73;;;11.20;99.90;;;;;;5022099;28;20205;-72
2022/11/11 03:38:22;;;;;;;37.33;21.07;;;11.20;99.90;;;;;;5022487;28;20391;-72
2022/11/11 03:40:55;;;;;;;36.67;20.40;;;11.10;99.90;;;;;;5018961;28;20218;-73
2022/11/11 03:43:28;;;;;;;36.00;20.43;;;11.20;99.90;;;;;;5021075;28;20245;-73
2022/11/11 03:45:58;;;;;;;39.50;20.67;;;11.20;99.90;;;;;;5021804;28;20208;-73
2022/11/11 03:48:27;;;;;;;37.27;20.57;;;11.20;99.90;;;;;;5023214;28;20208;-73
2022/11/11 03:50:54;;;;;;;35.87;19.70;;;11.20;99.90;;;;;;5020301;28;20292;-73
2022/11/11 03:53:21;;;;;;;38.47;20.33;;;11.20;99.90;;;;;;5026305;28;20538;-72
2022/11/11 03:55:50;;;;;;;34.23;20.17;;;11.30;99.90;;;;;;5006234;28;20818;-71
2022/11/11 03:58:17;;;;;;;32.50;20.03;;;11.20;99.90;;;;;;5018411;28;20308;-73
2022/11/11 04:00:45;;;;;;;34.00;20.53;;;11.20;99.90;;;;;;5021657;28;20225;-73
2022/11/11 04:11:38;;;;;;;36.50;20.03;;;11.10;99.90;;;;;;5022762;28;20812;-73
2022/11/11 04:16:54;;;;;;;34.97;20.23;;;11.10;99.90;;;;;;5019815;28;20209;-71
2022/11/11 04:22:07;;;;;;;41.07;20.70;;;11.10;99.90;;;;;;5019519;28;20694;-70
2022/11/11 04:27:19;;;;;;;35.40;19.40;;;11.00;99.90;;;;;;5019120;28;20229;-73
2022/11/11 04:29:46;;;;;;;37.07;20.30;;;11.00;99.90;;;;;;5021249;28;20233;-73
2022/11/11 04:32:34;;;;;;;37.80;18.27;;;11.00;99.90;;;;;;5023227;28;20301;-73
2022/11/11 04:35:06;;;;;;;35.70;19.07;;;11.00;99.90;;;;;;5022519;28;20697;-73
2022/11/11 04:37:35;;;;;;;36.33;19.87;;;11.00;99.90;;;;;;5019851;28;20226;-72
2022/11/11 04:42:51;;;;;;;33.90;19.73;;;11.00;99.90;;;;;;5015808;28;20268;-72
2022/11/11 04:45:27;;;;;;;34.83;18.37;;;11.00;99.90;;;;;;5023102;28;20202;-72
2022/11/11 04:48:05;;;;;;;34.90;19.30;;;11.00;99.90;;;;;;5022307;28;20242;-72
2022/11/11 04:50:41;;;;;;;30.97;17.97;;;11.00;99.90;;;;;;5017330;28;20230;-73
2022/11/11 04:53:13;;;;;;;31.80;17.87;;;11.00;99.90;;;;;;5023326;28;20659;-73
2022/11/11 04:58:30;;;;;;;31.57;16.60;;;11.00;99.90;;;;;;5023663;28;20262;-74
2022/11/11 05:00:58;;;;;;;31.37;17.83;;;10.90;99.90;;;;;;5011798;28;20324;-72
2022/11/11 05:03:25;;;;;;;28.83;17.00;;;11.00;99.90;;;;;;5023076;28;20568;-72
2022/11/11 05:08:55;;;;;;;31.60;16.63;;;11.00;99.90;;;;;;5027491;28;20240;-73
2022/11/11 05:11:25;;;;;;;30.17;17.83;;;11.00;99.90;;;;;;5022711;28;20237;-73
2022/11/11 05:22:29;;;;;;;27.67;15.47;;;11.00;99.90;;;;;;5025508;28;20253;-73
2022/11/11 05:27:42;;;;;;;31.50;16.27;;;11.10;99.90;;;;;;5020674;28;20209;-72
2022/11/11 05:30:10;;;;;;;29.90;17.27;;;11.00;99.90;;;;;;5012074;28;20224;-73
2022/11/11 05:32:38;;;;;;;37.73;17.73;;;11.00;99.90;;;;;;5023615;28;20627;-72
2022/11/11 05:35:05;;;;;;;29.10;16.23;;;10.90;99.90;;;;;;5021650;28;20210;-72
2022/11/11 05:37:32;;;;;;;28.00;15.77;;;10.90;99.90;;;;;;5023323;28;20230;-72
2022/11/11 05:39:59;;;;;;;27.00;15.60;;;10.90;99.90;;;;;;5022752;28;20256;-72
2022/11/11 05:42:26;;;;;;;32.53;16.87;;;10.90;99.90;;;;;;5025980;28;20284;-73
2022/11/11 05:44:53;;;;;;;30.37;16.53;;;11.00;99.90;;;;;;5006102;28;20210;-72
2022/11/11 05:47:20;;;;;;;26.77;16.03;;;11.00;99.90;;;;;;5004625;28;20199;-73
2022/11/11 05:49:47;;;;;;;31.27;16.97;;;10.90;99.90;;;;;;5008149;28;20275;-73
2022/11/11 05:52:15;;;;;;;30.73;16.63;;;10.90;99.90;;;;;;5009387;28;20642;-72
2022/11/11 05:54:42;;;;;;;29.77;16.10;;;10.90;99.90;;;;;;5028982;28;20882;-73
2022/11/11 05:57:10;;;;;;;34.47;17.03;;;10.90;99.90;;;;;;5024867;28;20300;-71
2022/11/11 05:59:36;;;;;;;26.17;15.60;;;10.90;99.90;;;;;;5024103;28;20256;-72
2022/11/11 06:02:03;;;;;;;28.60;16.13;;;10.90;99.90;;;;;;5023392;28;20645;-73
2022/11/11 06:04:30;;;;;;;28.00;16.40;;;10.90;99.90;;;;;;5025110;28;20294;-72
2022/11/11 06:06:57;;;;;;;30.97;15.63;;;10.90;99.90;;;;;;5023092;28;20302;-72
2022/11/11 06:09:24;;;;;;;27.93;16.37;;;10.90;99.90;;;;;;5011324;28;20683;-72
2022/11/11 06:11:51;;;;;;;27.27;15.47;;;10.90;99.90;;;;;;5021013;28;20237;-73
2022/11/11 06:14:18;;;;;;;31.00;17.27;;;10.90;99.90;;;;;;5006719;28;20320;-72
2022/11/11 06:16:45;;;;;;;33.10;16.80;;;10.90;99.90;;;;;;5021331;28;20252;-72
2022/11/11 06:19:13;;;;;;;27.90;16.57;;;10.90;99.90;;;;;;5024197;28;20997;-73
2022/11/11 06:21:55;;;;;;;29.40;17.03;;;11.10;99.90;;;;;;5021586;28;20218;-73
2022/11/11 06:24:22;;;;;;;28.27;15.77;;;10.90;99.90;;;;;;5024040;28;20248;-73
2022/11/11 06:26:53;;;;;;;31.97;16.90;;;10.80;99.90;;;;;;5007072;28;20210;-73
2022/11/11 06:29:19;;;;;;;30.07;15.40;;;10.80;99.90;;;;;;5026295;28;20226;-72
2022/11/11 06:31:46;;;;;;;28.93;15.93;;;10.90;99.90;;;;;;5027359;28;20309;-71
2022/11/11 06:34:13;;;;;;;28.00;16.53;;;10.90;99.90;;;;;;5005172;28;20685;-72
2022/11/11 06:36:40;;;;;;;27.10;15.50;;;10.90;99.90;;;;;;5011034;28;20257;-72
2022/11/11 06:39:07;;;;;;;31.87;17.33;;;10.90;99.90;;;;;;5023856;28;20206;-73
2022/11/11 06:41:34;;;;;;;25.17;15.27;;;10.90;99.90;;;;;;5028012;28;20329;-72
2022/11/11 06:44:01;;;;;;;29.23;16.80;;;10.90;99.90;;;;;;5027894;28;20194;-72
2022/11/11 06:46:28;;;;;;;30.87;16.00;;;10.90;99.90;;;;;;5010732;28;20214;-70
2022/11/11 06:48:56;;;;;;;28.40;16.13;;;10.90;99.90;;;;;;5023980;28;20666;-72
2022/11/11 06:51:23;;;;;;;28.43;15.57;;;10.80;99.90;;;;;;5019134;28;20233;-72
2022/11/11 06:53:50;;;;;;;28.00;15.00;;;10.80;99.90;;;;;;5018911;28;20666;-73
2022/11/11 06:56:17;;;;;;;28.57;16.33;;;10.80;99.90;;;;;;5022468;28;20206;-72
2022/11/11 06:58:44;;;;;;;27.57;15.63;;;10.80;99.90;;;;;;5026669;28;20233;-71
2022/11/11 07:01:12;;;;;;;30.47;15.77;;;10.80;99.90;;;;;;5026715;28;20373;-72
2022/11/11 07:03:40;;;;;;;40.23;17.67;;;10.80;99.90;;;;;;5029687;28;20194;-73
2022/11/11 07:06:07;;;;;;;28.90;15.30;;;10.90;99.90;;;;;;5030079;28;20213;-73
2022/11/11 07:08:34;;;;;;;30.17;16.27;;;10.80;99.90;;;;;;5026557;28;20202;-72
2022/11/11 07:11:01;;;;;;;26.57;15.87;;;11.00;99.90;;;;;;5024247;28;20221;-74
2022/11/11 07:13:38;;;;;;;26.83;15.83;;;10.80;99.90;;;;;;5024956;28;20213;-71
2022/11/11 07:16:05;;;;;;;28.23;14.70;;;10.80;99.90;;;;;;5028940;28;20206;-73
2022/11/11 07:18:32;;;;;;;30.83;16.70;;;10.80;99.90;;;;;;5022183;28;20615;-72
2022/11/11 07:20:59;;;;;;;27.10;15.13;;;10.70;99.90;;;;;;5024843;28;20296;-72
2022/11/11 07:23:25;;;;;;;30.83;15.40;;;10.90;99.90;;;;;;5024531;28;20678;-73
2022/11/11 07:25:52;;;;;;;28.30;14.77;;;10.90;99.90;;;;;;5019695;28;20216;-73
2022/11/11 07:28:19;;;;;;;26.53;14.77;;;10.90;99.90;;;;;;5021568;28;20212;-72
2022/11/11 07:30:46;;;;;;;27.33;14.83;;;10.90;99.90;;;;;;5028152;28;20577;-72
2022/11/11 07:33:12;;;;;;;31.30;15.60;;;10.90;99.90;;;;;;5021240;28;20309;-73
2022/11/11 07:35:39;;;;;;;30.00;14.80;;;11.00;99.90;;;;;;5024292;28;20201;-72
2022/11/11 07:38:06;;;;;;;24.87;14.83;;;11.00;99.90;;;;;;5020768;28;20202;-71
2022/11/11 07:40:33;;;;;;;26.77;15.20;;;11.00;99.90;;;;;;5019954;28;20210;-72
2022/11/11 07:42:59;;;;;;;26.67;14.33;;;10.90;99.90;;;;;;5019677;28;20344;-72
2022/11/11 07:45:26;;;;;;;31.70;16.43;;;10.90;99.90;;;;;;5025235;28;20283;-73
2022/11/11 07:47:53;;;;;;;23.73;13.53;;;10.90;99.90;;;;;;5023263;28;20215;-71
2022/11/11 07:50:20;;;;;;;24.57;14.33;;;10.90;99.90;;;;;;5028757;28;20241;-72
2022/11/11 07:52:48;;;;;;;26.87;14.73;;;11.00;99.90;;;;;;5023275;28;20664;-71
2022/11/11 07:55:15;;;;;;;25.77;14.87;;;11.00;99.90;;;;;;5024099;28;20202;-71
2022/11/11 07:57:42;;;;;;;27.27;15.20;;;10.90;99.90;;;;;;5010914;28;20284;-71
2022/11/11 08:00:09;;;;;;;30.93;15.27;;;10.90;99.90;;;;;;5015872;28;20288;-73
2022/11/11 08:02:36;;;;;;;27.03;14.20;;;11.00;99.90;;;;;;5020312;28;20646;-72
2022/11/11 08:05:03;;;;;;;23.47;14.33;;;11.00;99.90;;;;;;5024131;28;20211;-72
2022/11/11 08:07:41;;;;;;;26.17;13.60;;;11.00;99.90;;;;;;5025550;28;20245;-71
2022/11/11 08:10:09;;;;;;;24.87;13.77;;;11.10;99.90;;;;;;5023097;28;20279;-72
2022/11/11 08:15:22;;;;;;;22.07;14.43;;;11.00;99.90;;;;;;5023107;28;20200;-73
2022/11/11 08:17:49;;;;;;;28.10;14.17;;;11.10;99.90;;;;;;5023469;28;20260;-72
2022/11/11 08:20:16;;;;;;;27.67;14.60;;;11.10;99.90;;;;;;5023125;28;20697;-72
2022/11/11 08:22:43;;;;;;;26.40;15.70;;;11.10;99.90;;;;;;5024199;28;20225;-72
2022/11/11 08:25:30;;;;;;;26.27;14.20;;;11.10;99.90;;;;;;5021687;28;20721;-72
2022/11/11 08:27:58;;;;;;;25.33;14.33;;;11.10;99.90;;;;;;5023054;28;20247;-72
2022/11/11 08:30:25;;;;;;;28.60;13.97;;;11.20;99.90;;;;;;5024291;28;20296;-73
2022/11/11 08:33:04;;;;;;;25.87;14.17;;;11.20;99.90;;;;;;5024095;28;20220;-73
2022/11/11 08:35:53;;;;;;;25.30;14.20;;;11.20;99.90;;;;;;5022074;28;20220;-73
2022/11/11 08:38:22;;;;;;;25.60;13.40;;;11.20;99.90;;;;;;5025157;28;20221;-73
2022/11/11 08:40:50;;;;;;;22.80;13.47;;;11.30;99.90;;;;;;5023489;28;20217;-72
2022/11/11 08:43:17;;;;;;;26.70;14.63;;;11.30;99.90;;;;;;5025609;28;20704;-72
2022/11/11 08:45:44;;;;;;;25.83;13.43;;;11.30;99.90;;;;;;5007550;28;20256;-71
2022/11/11 08:48:11;;;;;;;23.67;14.47;;;11.30;99.90;;;;;;5025423;28;20412;-71
2022/11/11 08:50:39;;;;;;;27.50;14.47;;;11.30;99.90;;;;;;5026428;28;20206;-72
2022/11/11 08:53:07;;;;;;;23.40;14.00;;;11.30;99.90;;;;;;5024599;28;20212;-73
2022/11/11 08:55:34;;;;;;;24.77;15.60;;;11.20;99.90;;;;;;5025058;28;20205;-74
2022/11/11 08:58:04;;;;;;;22.77;13.70;;;11.20;99.90;;;;;;5023900;28;20696;-72
2022/11/11 09:00:32;;;;;;;24.67;14.80;;;11.20;99.90;;;;;;5021855;28;20214;-72
2022/11/11 09:03:01;;;;;;;25.90;14.20;;;11.10;99.90;;;;;;5025311;28;20220;-72
2022/11/11 09:05:28;;;;;;;24.33;14.23;;;11.10;99.90;;;;;;5021458;28;20249;-72
2022/11/11 09:07:55;;;;;;;21.53;14.27;;;11.10;99.90;;;;;;5021720;28;20222;-72
2022/11/11 09:10:22;;;;;;;24.33;14.80;;;11.10;99.90;;;;;;5027957;28;20206;-73
2022/11/11 09:12:54;;;;;;;26.13;14.40;;;11.10;99.90;;;;;;5025494;28;20356;-72
2022/11/11 09:15:20;;;;;;;23.80;14.13;;;11.10;99.90;;;;;;5020044;28;20305;-73
2022/11/11 09:17:47;;;;;;;23.33;15.30;;;11.20;99.90;;;;;;5023036;28;20206;-71
2022/11/11 09:20:15;;;;;;;26.20;14.63;;;;;;;;;;5019135;28;20244;-70
2022/11/11 09:22:48;;;;;;;25.60;14.57;;;11.20;99.90;;;;;;5022104;28;20623;-74
2022/11/11 09:25:15;;;;;;;26.43;15.70;;;11.20;99.90;;;;;;4999944;28;20203;-72
2022/11/11 09:27:42;;;;;;;23.70;14.10;;;11.20;99.90;;;;;;5007983;28;20662;-72
2022/11/11 09:30:09;;;;;;;26.50;15.10;;;11.20;99.90;;;;;;5025845;28;20753;-72
2022/11/11 09:32:36;;;;;;;23.67;15.00;;;11.20;99.90;;;;;;5024215;28;20641;-71
2022/11/11 09:35:04;;;;;;;24.40;15.07;;;11.20;99.90;;;;;;5025044;28;20296;-71
2022/11/11 09:37:30;;;;;;;29.53;15.20;;;11.20;99.90;;;;;;5020395;28;20531;-70
2022/11/11 09:39:57;;;;;;;24.07;14.07;;;11.30;99.90;;;;;;5022852;28;20675;-71
2022/11/11 09:42:41;;;;;;;22.47;13.70;;;11.30;99.90;;;;;;5023723;28;20224;-71
2022/11/11 09:45:32;;;;;;;28.80;14.87;;;11.20;99.90;;;;;;5012351;28;20702;-71
2022/11/11 09:48:17;;;;;;;22.83;14.83;;;11.20;99.90;;;;;;5021694;28;20201;-72
2022/11/11 09:50:53;;;;;;;24.67;14.73;;;11.20;99.90;;;;;;5024570;28;20245;-71
2022/11/11 09:53:36;;;;;;;22.20;14.40;;;11.30;99.90;;;;;;5022003;28;20217;-71
2022/11/11 09:56:07;;;;;;;25.10;13.43;;;11.20;99.90;;;;;;5022416;28;20244;-72
2022/11/11 09:59:12;;;;;;;24.30;14.23;;;11.20;99.90;;;;;;5023443;28;20241;-72
2022/11/11 10:01:54;;;;;;;22.87;13.03;;;11.20;99.90;;;;;;5023319;28;20206;-71
2022/11/11 10:04:48;;;;;;;24.67;14.00;;;11.30;99.90;;;;;;5020988;28;20978;-70
2022/11/11 10:07:38;;;;;;;24.47;13.80;;;11.30;99.90;;;;;;5024611;28;20283;-72
2022/11/11 10:10:15;;;;;;;24.93;13.97;;;11.30;99.90;;;;;;5025295;28;20300;-70
2022/11/11 10:12:48;;;;;;;23.00;13.20;;;11.30;99.90;;;;;;5022389;28;20324;-71
2022/11/11 10:15:15;;;;;;;22.67;14.00;;;11.30;99.90;;;;;;5024329;28;20312;-71
2022/11/11 10:17:57;;;;;;;20.83;13.43;;;11.30;99.90;;;;;;5003872;28;20253;-72
2022/11/11 10:20:31;;;;;;;20.97;13.60;;;11.20;99.90;;;;;;5028692;28;20246;-72
2022/11/11 10:23:13;;;;;;;19.57;12.37;;;11.30;99.90;;;;;;5022735;28;20662;-71
2022/11/11 10:25:52;;;;;;;17.90;12.20;;;11.30;99.90;;;;;;5022014;28;20285;-71
2022/11/11 10:28:21;;;;;;;19.00;12.60;;;11.40;99.90;;;;;;5023582;28;20224;-71
2022/11/11 10:30:51;;;;;;;19.63;12.27;;;11.40;99.90;;;;;;5026808;28;20248;-72
2022/11/11 10:33:41;;;;;;;20.43;12.37;;;11.30;99.90;;;;;;5024264;28;20213;-71
2022/11/11 10:36:16;;;;;;;23.10;12.80;;;11.40;99.90;;;;;;5022846;28;20470;-71
2022/11/11 10:38:42;;;;;;;21.37;12.57;;;11.30;99.90;;;;;;5002921;28;20300;-75
2022/11/11 10:41:17;;;;;;;20.07;12.57;;;11.30;99.90;;;;;;5006329;28;20264;-72
2022/11/11 10:43:46;;;;;;;19.70;12.70;;;11.40;99.90;;;;;;5018295;28;20688;-72
2022/11/11 10:46:21;;;;;;;19.60;11.77;;;11.50;99.90;;;;;;5010786;28;20260;-71
2022/11/11 10:48:59;;;;;;;21.30;12.40;;;11.50;99.90;;;;;;5019508;28;20721;-72
2022/11/11 10:51:31;;;;;;;19.70;12.27;;;11.60;99.90;;;;;;5022542;28;20256;-72
2022/11/11 10:54:59;;;;;;;21.53;12.17;;;11.50;99.90;;;;;;5021437;28;20229;-74
2022/11/11 10:57:51;;;;;;;19.00;12.30;;;11.70;99.90;;;;;;4961551;28;20786;-73
2022/11/11 11:00:19;;;;;;;25.00;12.23;;;11.70;99.90;;;;;;5020323;28;20284;-74
2022/11/11 11:03:15;;;;;;;18.93;11.27;;;11.70;99.90;;;;;;5014952;28;20260;-72
2022/11/11 11:05:52;;;;;;;19.97;11.30;;;11.80;99.90;;;;;;5020662;28;20210;-73
2022/11/11 11:08:48;;;;;;;18.10;11.10;;;11.80;99.90;;;;;;5020637;28;20686;-71
2022/11/11 11:11:24;;;;;;;19.87;10.67;;;11.90;99.90;;;;;;5018419;28;20281;-71
2022/11/11 11:13:56;;;;;;;18.90;10.70;;;11.90;99.90;;;;;;5022684;28;20259;-73
2022/11/11 11:16:29;;;;;;;18.93;10.63;;;12.00;99.90;;;;;;5021446;28;20241;-70
2022/11/11 11:19:18;;;;;;;19.07;10.53;;;12.10;99.90;;;;;;5023416;28;20640;-71
2022/11/11 11:21:51;;;;;;;18.73;10.70;;;12.20;99.90;;;;;;5023610;28;20222;-71
2022/11/11 11:24:33;;;;;;;16.90;10.77;;;12.20;99.90;;;;;;5021045;28;20293;-72
2022/11/11 11:27:06;;;;;;;19.10;10.43;;;12.30;99.90;;;;;;5025808;28;20205;-71
2022/11/11 11:29:44;;;;;;;16.40;10.67;;;12.40;99.90;;;;;;5006199;28;20202;-71
2022/11/11 11:32:10;;;;;;;14.97;9.97;;;12.40;99.90;;;;;;5024476;28;20759;-71
2022/11/11 11:34:54;;;;;;;14.93;10.10;;;12.50;99.90;;;;;;5021343;28;20221;-72
2022/11/11 11:37:23;;;;;;;16.97;9.80;;;12.60;99.90;;;;;;5022904;28;20747;-72
2022/11/11 11:40:05;;;;;;;16.80;9.23;;;12.70;99.90;;;;;;5027121;28;20194;-73
2022/11/11 11:42:34;;;;;;;15.57;8.80;;;12.80;99.90;;;;;;5025380;28;20618;-72
2022/11/11 11:45:20;;;;;;;16.23;9.33;;;13.00;99.90;;;;;;5026212;28;20201;-71
2022/11/11 11:47:53;;;;;;;12.40;8.07;;;13.00;99.90;;;;;;5026446;28;20252;-72
2022/11/11 11:50:49;;;;;;;15.60;8.77;;;13.10;99.90;;;;;;5025694;28;20214;-71
2022/11/11 11:53:38;;;;;;;13.40;8.40;;;13.20;99.90;;;;;;5025513;28;20225;-72
2022/11/11 11:56:37;;;;;;;12.17;7.97;;;13.30;99.90;;;;;;5023156;28;20214;-72
2022/11/11 11:59:31;;;;;;;11.60;7.63;;;13.40;99.90;;;;;;5025943;28;20201;-71
2022/11/11 12:02:20;;;;;;;10.37;7.10;;;13.40;99.90;;;;;;5023730;28;20202;-72
2022/11/11 12:05:03;;;;;;;12.07;8.40;;;13.50;99.90;;;;;;5024705;28;20658;-72
2022/11/11 12:08:05;;;;;;;16.93;9.10;;;13.50;99.90;;;;;;5022737;28;20582;-71
2022/11/11 12:11:05;;;;;;;14.90;8.33;;;13.50;99.90;;;;;;4983474;28;20214;-70
2022/11/11 12:13:56;;;;;;;12.60;7.27;;;13.60;99.90;;;;;;5025299;28;20229;-71
2022/11/11 12:16:52;;;;;;;13.63;7.37;;;13.70;99.90;;;;;;5024774;28;20688;-72
2022/11/11 12:19:34;;;;;;;10.53;7.30;;;13.80;99.90;;;;;;5019648;28;20241;-72
2022/11/11 12:22:22;;;;;;;13.63;7.83;;;13.90;99.90;;;;;;5029577;28;20558;-72
2022/11/11 12:25:07;;;;;;;13.47;7.20;;;13.90;99.90;;;;;;5027360;28;20553;-72
2022/11/11 12:27:38;;;;;;;16.97;7.23;;;14.00;99.90;;;;;;5021628;28;20638;-72
2022/11/11 12:30:11;;;;;;;10.37;7.37;;;14.00;99.90;;;;;;5027876;28;20205;-72
2022/11/11 12:33:16;;;;;;;13.10;7.53;;;14.10;99.90;;;;;;5021481;28;20229;-71
2022/11/11 12:35:58;;;;;;;10.23;6.60;;;14.10;99.90;;;;;;5018669;28;20542;-71
2022/11/11 12:38:43;;;;;;;11.23;6.57;;;14.10;99.90;;;;;;5015019;28;20265;-72
2022/11/11 12:41:23;;;;;;;11.80;6.10;;;14.20;99.90;;;;;;5021947;28;20589;-73
2022/11/11 12:44:03;;;;;;;10.30;6.57;;;14.10;99.90;;;;;;5022354;28;20248;-73
2022/11/11 12:46:40;;;;;;;12.30;7.00;;;14.10;99.90;;;;;;5018715;28;20209;-72
2022/11/11 12:49:07;;;;;;;11.13;7.27;;;14.10;99.90;;;;;;5017555;28;20283;-71
2022/11/11 12:51:49;;;;;;;13.00;7.03;;;14.10;99.90;;;;;;5019941;28;20703;-72
2022/11/11 12:54:25;;;;;;;12.20;6.87;;;14.10;99.90;;;;;;5017626;28;20248;-73
2022/11/11 12:57:08;;;;;;;12.13;7.40;;;14.10;99.90;;;;;;5018868;28;20269;-72
2022/11/11 13:00:03;;;;;;;13.53;6.73;;;14.00;99.90;;;;;;5017403;28;20670;-72
2022/11/11 13:02:57;;;;;;;11.97;6.60;;;14.00;99.90;;;;;;5013749;28;20213;-69
2022/11/11 13:05:55;;;;;;;11.50;6.80;;;14.00;99.90;;;;;;5022812;28;20678;-72
2022/11/11 13:08:37;;;;;;;10.57;6.67;;;14.00;99.90;;;;;;5025310;28;20661;-71
2022/11/11 13:11:30;;;;;;;14.83;6.80;;;13.90;99.90;;;;;;5025470;28;20205;-72
2022/11/11 13:14:05;;;;;;;13.77;6.63;;;13.90;99.90;;;;;;5005748;28;20628;-70
2022/11/11 13:16:32;;;;;;;12.27;6.90;;;13.90;99.90;;;;;;5026693;28;20636;-71
2022/11/11 13:19:16;;;;;;;13.43;7.03;;;13.90;99.90;;;;;;5024123;28;20210;-72
2022/11/11 13:21:52;;;;;;;11.50;6.67;;;13.80;99.90;;;;;;5005322;28;20300;-72
2022/11/11 13:24:23;;;;;;;13.83;7.10;;;13.80;99.90;;;;;;5026033;28;20253;-71
2022/11/11 13:27:04;;;;;;;12.27;7.27;;;13.80;99.90;;;;;;5022872;28;20198;-71
2022/11/11 13:29:54;;;;;;;13.27;7.33;;;13.80;99.90;;;;;;5003723;28;20218;-71
2022/11/11 13:32:27;;;;;;;12.70;6.97;;;13.70;99.90;;;;;;5021621;28;20265;-72
2022/11/11 13:34:55;;;;;;;13.70;7.60;;;13.60;99.90;;;;;;5024272;28;20637;-71
2022/11/11 13:37:29;;;;;;;13.63;7.23;;;13.40;99.90;;;;;;5022497;28;20277;-71
2022/11/11 13:40:12;;;;;;;11.93;7.43;;;13.40;99.90;;;;;;5010403;28;20643;-73
2022/11/11 13:42:45;;;;;;;14.53;8.77;;;13.40;99.90;;;;;;5027639;28;20206;-72
2022/11/11 13:45:39;;;;;;;13.03;6.87;;;13.30;99.90;;;;;;5024834;28;20263;-71
2022/11/11 13:48:15;;;;;;;12.83;7.27;;;13.30;99.90;;;;;;5023017;28;20682;-71
2022/11/11 13:50:42;;;;;;;14.90;7.70;;;13.30;99.90;;;;;;5021863;28;20206;-71
2022/11/11 13:53:25;;;;;;;12.17;7.43;;;13.20;99.90;;;;;;5008026;28;20275;-71
2022/11/11 13:55:59;;;;;;;12.53;7.17;;;13.10;99.90;;;;;;5016929;28;20227;-73
2022/11/11 13:58:31;;;;;;;12.50;6.73;;;13.10;99.90;;;;;;5004798;28;20730;-72
2022/11/11 14:01:07;;;;;;;13.03;7.97;;;13.10;99.90;;;;;;5020420;28;20213;-72